createdAt,value
2019-01-13T00:00:51.218Z,6.70
2019-01-13T00:01:51.131Z,6.69
2019-01-13T00:02:51.046Z,6.62
2019-01-13T00:03:50.956Z,6.62
2019-01-13T00:04:50.871Z,6.54
2019-01-13T00:05:50.796Z,6.54
2019-01-13T00:06:50.706Z,6.64
2019-01-13T00:07:50.623Z,6.66
2019-01-13T00:08:50.532Z,6.59
2019-01-13T00:09:50.444Z,6.66
2019-01-13T00:10:50.356Z,6.55
2019-01-13T00:11:50.271Z,6.55
2019-01-13T00:12:50.196Z,6.64
2019-01-13T00:13:50.106Z,6.59
2019-01-13T00:14:50.020Z,6.61
2019-01-13T00:15:49.932Z,6.58
2019-01-13T00:16:49.846Z,6.70
2019-01-13T00:17:49.757Z,6.61
2019-01-13T00:18:49.682Z,6.70
2019-01-13T00:19:49.596Z,6.61
2019-01-13T00:20:49.510Z,6.66
2019-01-13T00:21:49.420Z,6.62
2019-01-13T00:22:49.334Z,6.67
2019-01-13T00:23:49.247Z,6.61
2019-01-13T00:24:49.172Z,6.66
2019-01-13T00:25:49.087Z,6.58
2019-01-13T00:26:48.998Z,6.58
2019-01-13T00:27:48.910Z,6.59
2019-01-13T00:28:48.821Z,6.56
2019-01-13T00:29:48.735Z,6.56
2019-01-13T00:30:48.658Z,6.62
2019-01-13T00:31:48.573Z,6.58
2019-01-13T00:32:48.487Z,6.59
2019-01-13T00:33:48.406Z,6.56
2019-01-13T00:34:48.322Z,6.58
2019-01-13T00:35:48.234Z,6.52
2019-01-13T00:36:48.147Z,6.56
2019-01-13T00:37:48.062Z,6.61
2019-01-13T00:38:47.984Z,6.43
2019-01-13T00:39:47.885Z,6.40
2019-01-13T00:40:48.098Z,6.48
2019-01-13T00:41:47.723Z,6.43
2019-01-13T00:42:47.693Z,6.48
2019-01-13T00:43:47.547Z,6.43
2019-01-13T00:44:47.459Z,6.46
2019-01-13T00:45:47.373Z,6.41
2019-01-13T00:46:47.288Z,6.44
2019-01-13T00:47:47.210Z,6.40
2019-01-13T00:48:47.126Z,6.41
2019-01-13T00:49:47.035Z,6.44
2019-01-13T00:50:46.950Z,6.43
2019-01-13T00:51:46.877Z,6.34
2019-01-13T00:52:46.773Z,6.40
2019-01-13T00:53:46.704Z,6.22
2019-01-13T00:54:46.614Z,6.34
2019-01-13T00:55:46.525Z,6.38
2019-01-13T00:56:46.439Z,6.28
2019-01-13T00:57:46.352Z,6.36
2019-01-13T00:58:46.274Z,6.40
2019-01-13T00:59:46.187Z,6.34
2019-01-13T01:00:46.101Z,6.36
2019-01-13T01:01:46.012Z,6.33
2019-01-13T01:02:45.925Z,6.28
2019-01-13T01:03:45.837Z,6.33
2019-01-13T01:04:45.762Z,6.27
2019-01-13T01:05:45.675Z,6.31
2019-01-13T01:06:45.601Z,6.33
2019-01-13T01:07:47.050Z,6.30
2019-01-13T01:08:45.412Z,6.31
2019-01-13T01:09:45.326Z,6.18
2019-01-13T01:10:45.239Z,6.27
2019-01-13T01:11:45.151Z,6.30
2019-01-13T01:12:45.077Z,6.28
2019-01-13T01:13:44.990Z,6.21
2019-01-13T01:14:44.906Z,6.19
2019-01-13T01:15:44.815Z,6.25
2019-01-13T01:16:44.727Z,6.22
2019-01-13T01:17:44.639Z,6.22
2019-01-13T01:18:44.563Z,6.30
2019-01-13T01:19:44.477Z,6.17
2019-01-13T01:20:44.389Z,6.22
2019-01-13T01:21:44.304Z,6.22
2019-01-13T01:22:44.217Z,6.21
2019-01-13T01:23:44.127Z,6.17
2019-01-13T01:24:44.040Z,6.25
2019-01-13T01:25:43.964Z,6.28
2019-01-13T01:26:43.877Z,6.27
2019-01-13T01:27:43.789Z,6.19
2019-01-13T01:28:44.418Z,6.22
2019-01-13T01:29:43.617Z,6.25
2019-01-13T01:30:43.528Z,6.22
2019-01-13T01:31:43.454Z,6.22
2019-01-13T01:32:43.365Z,6.25
2019-01-13T01:33:43.282Z,6.18
2019-01-13T01:34:43.193Z,6.17
2019-01-13T01:35:43.104Z,6.22
2019-01-13T01:36:43.016Z,6.30
2019-01-13T01:37:42.929Z,6.31
2019-01-13T01:38:42.859Z,6.22
2019-01-13T01:39:42.766Z,6.25
2019-01-13T01:40:42.680Z,6.22
2019-01-13T01:41:42.591Z,6.27
2019-01-13T01:42:42.508Z,6.21
2019-01-13T01:43:42.417Z,6.22
2019-01-13T01:44:42.342Z,6.19
2019-01-13T01:45:42.255Z,6.25
2019-01-13T01:46:42.179Z,6.25
2019-01-13T01:47:42.080Z,6.25
2019-01-13T01:48:41.991Z,6.28
2019-01-13T01:49:41.905Z,6.22
2019-01-13T01:50:41.818Z,6.27
2019-01-13T01:51:41.742Z,6.25
2019-01-13T01:52:41.655Z,6.18
2019-01-13T01:53:41.571Z,6.25
2019-01-13T01:54:41.480Z,6.25
2019-01-13T01:55:41.392Z,6.22
2019-01-13T01:56:41.307Z,6.27
2019-01-13T01:57:41.233Z,6.28
2019-01-13T01:58:41.146Z,6.28
2019-01-13T01:59:41.058Z,6.30
2019-01-13T02:00:40.984Z,6.30
2019-01-13T02:01:40.881Z,6.18
2019-01-13T02:02:40.793Z,6.25
2019-01-13T02:03:40.706Z,6.19
2019-01-13T02:04:40.632Z,6.19
2019-01-13T02:05:40.580Z,6.30
2019-01-13T02:06:40.458Z,6.22
2019-01-13T02:07:40.369Z,6.22
2019-01-13T02:08:40.282Z,6.19
2019-01-13T02:09:40.196Z,6.27
2019-01-13T02:10:40.119Z,6.27
2019-01-13T02:11:40.032Z,6.19
2019-01-13T02:12:39.944Z,6.22
2019-01-13T02:13:39.858Z,6.28
2019-01-13T02:14:39.772Z,6.21
2019-01-13T02:15:39.683Z,6.21
2019-01-13T02:16:39.608Z,6.30
2019-01-13T02:17:39.520Z,6.25
2019-01-13T02:18:39.433Z,6.21
2019-01-13T02:19:39.345Z,6.25
2019-01-13T02:20:39.259Z,6.22
2019-01-13T02:21:39.171Z,6.19
2019-01-13T02:22:39.097Z,6.25
2019-01-13T02:23:39.008Z,6.21
2019-01-13T02:24:38.933Z,6.27
2019-01-13T02:25:38.834Z,6.27
2019-01-13T02:26:38.748Z,6.30
2019-01-13T02:27:38.661Z,6.22
2019-01-13T02:28:38.583Z,6.25
2019-01-13T02:29:38.497Z,6.25
2019-01-13T02:30:38.411Z,6.21
2019-01-13T02:31:38.326Z,6.25
2019-01-13T02:32:38.238Z,6.28
2019-01-13T02:33:38.147Z,6.33
2019-01-13T02:34:38.077Z,6.30
2019-01-13T02:35:37.986Z,6.33
2019-01-13T02:36:37.911Z,6.34
2019-01-13T02:37:37.809Z,6.30
2019-01-13T02:38:37.722Z,6.25
2019-01-13T02:39:37.639Z,6.36
2019-01-13T02:40:37.861Z,6.31
2019-01-13T02:41:37.473Z,6.34
2019-01-13T02:42:37.386Z,6.34
2019-01-13T02:43:37.310Z,6.37
2019-01-13T02:44:37.210Z,6.28
2019-01-13T02:45:37.127Z,6.31
2019-01-13T02:46:37.048Z,6.40
2019-01-13T02:47:36.963Z,6.30
2019-01-13T02:48:36.873Z,6.38
2019-01-13T02:49:36.790Z,6.30
2019-01-13T02:50:36.712Z,6.22
2019-01-13T02:51:36.613Z,6.27
2019-01-13T02:52:36.542Z,6.22
2019-01-13T02:53:36.450Z,6.21
2019-01-13T02:54:36.362Z,6.30
2019-01-13T02:55:36.273Z,6.28
2019-01-13T02:56:36.188Z,6.27
2019-01-13T02:57:36.112Z,6.27
2019-01-13T02:58:36.026Z,6.25
2019-01-13T02:59:35.945Z,6.25
2019-01-13T03:00:35.851Z,6.25
2019-01-13T03:01:35.762Z,6.25
2019-01-13T03:02:35.677Z,6.22
2019-01-13T03:03:35.588Z,6.28
2019-01-13T03:04:35.513Z,6.19
2019-01-13T03:05:35.428Z,6.21
2019-01-13T03:06:35.343Z,6.15
2019-01-13T03:07:35.250Z,6.18
2019-01-13T03:08:35.164Z,6.28
2019-01-13T03:09:35.078Z,6.27
2019-01-13T03:10:35.001Z,6.15
2019-01-13T03:11:34.915Z,6.27
2019-01-13T03:12:34.838Z,6.17
2019-01-13T03:13:34.738Z,6.22
2019-01-13T03:14:34.653Z,6.25
2019-01-13T03:15:34.864Z,6.22
2019-01-13T03:16:34.490Z,6.14
2019-01-13T03:17:34.412Z,6.25
2019-01-13T03:18:34.314Z,6.17
2019-01-13T03:19:34.234Z,6.21
2019-01-13T03:20:34.140Z,6.14
2019-01-13T03:21:34.051Z,6.25
2019-01-13T03:22:33.978Z,6.25
2019-01-13T03:23:33.890Z,6.28
2019-01-13T03:24:33.804Z,6.25
2019-01-13T03:25:33.721Z,6.17
2019-01-13T03:26:33.628Z,6.27
2019-01-13T03:27:33.550Z,6.17
2019-01-13T03:28:33.465Z,6.17
2019-01-13T03:29:33.382Z,6.14
2019-01-13T03:30:33.292Z,6.19
2019-01-13T03:31:33.206Z,6.19
2019-01-13T03:32:33.119Z,6.17
2019-01-13T03:33:33.029Z,6.25
2019-01-13T03:34:32.953Z,6.30
2019-01-13T03:35:32.867Z,6.25
2019-01-13T03:36:32.778Z,6.21
2019-01-13T03:37:32.693Z,6.28
2019-01-13T03:38:32.607Z,6.25
2019-01-13T03:39:32.526Z,6.19
2019-01-13T03:40:32.428Z,6.27
2019-01-13T03:41:32.354Z,6.25
2019-01-13T03:42:32.268Z,6.30
2019-01-13T03:43:32.179Z,6.25
2019-01-13T03:44:32.091Z,6.22
2019-01-13T03:45:32.005Z,6.28
2019-01-13T03:46:31.928Z,6.28
2019-01-13T03:47:31.846Z,6.21
2019-01-13T03:48:31.754Z,6.19
2019-01-13T03:49:31.668Z,6.19
2019-01-13T03:50:31.579Z,6.27
2019-01-13T03:51:31.501Z,6.28
2019-01-13T03:52:31.406Z,6.31
2019-01-13T03:53:31.329Z,6.27
2019-01-13T03:54:31.245Z,6.27
2019-01-13T03:55:31.156Z,6.30
2019-01-13T03:56:31.069Z,6.19
2019-01-13T03:57:30.980Z,6.19
2019-01-13T03:58:30.894Z,6.28
2019-01-13T03:59:30.818Z,6.22
2019-01-13T04:00:31.032Z,6.19
2019-01-13T04:01:30.645Z,6.22
2019-01-13T04:02:30.569Z,6.28
2019-01-13T04:03:30.469Z,6.21
2019-01-13T04:04:30.381Z,6.27
2019-01-13T04:05:30.298Z,6.22
2019-01-13T04:06:30.219Z,6.28
2019-01-13T04:07:30.131Z,6.28
2019-01-13T04:08:30.045Z,6.25
2019-01-13T04:09:29.958Z,6.33
2019-01-13T04:10:29.870Z,6.31
2019-01-13T04:11:29.784Z,6.34
2019-01-13T04:12:29.709Z,6.30
2019-01-13T04:13:29.621Z,6.33
2019-01-13T04:14:29.532Z,6.36
2019-01-13T04:15:29.445Z,6.33
2019-01-13T04:16:29.357Z,6.33
2019-01-13T04:17:29.272Z,6.37
2019-01-13T04:18:29.195Z,6.30
2019-01-13T04:19:29.107Z,6.38
2019-01-13T04:20:29.023Z,6.38
2019-01-13T04:21:28.935Z,6.36
2019-01-13T04:22:28.846Z,6.34
2019-01-13T04:23:28.758Z,6.30
2019-01-13T04:24:28.683Z,6.27
2019-01-13T04:25:28.596Z,6.30
2019-01-13T04:26:28.509Z,6.36
2019-01-13T04:27:28.422Z,6.34
2019-01-13T04:28:28.340Z,6.34
2019-01-13T04:29:28.249Z,6.37
2019-01-13T04:30:28.173Z,6.37
2019-01-13T04:31:28.084Z,6.36
2019-01-13T04:32:27.999Z,6.37
2019-01-13T04:33:27.912Z,6.33
2019-01-13T04:34:27.822Z,6.37
2019-01-13T04:35:27.735Z,6.34
2019-01-13T04:36:27.662Z,6.41
2019-01-13T04:37:27.572Z,6.33
2019-01-13T04:38:27.485Z,6.40
2019-01-13T04:39:27.398Z,6.37
2019-01-13T04:40:27.311Z,6.36
2019-01-13T04:41:27.224Z,6.36
2019-01-13T04:42:27.148Z,6.34
2019-01-13T04:43:27.060Z,6.36
2019-01-13T04:44:26.975Z,6.28
2019-01-13T04:45:26.889Z,6.34
2019-01-13T04:46:26.799Z,6.31
2019-01-13T04:47:26.725Z,6.31
2019-01-13T04:48:26.636Z,6.28
2019-01-13T04:49:26.551Z,6.30
2019-01-13T04:50:26.461Z,6.27
2019-01-13T04:51:26.374Z,6.31
2019-01-13T04:52:26.286Z,6.33
2019-01-13T04:53:26.212Z,6.31
2019-01-13T04:54:26.127Z,6.31
2019-01-13T04:55:26.041Z,6.36
2019-01-13T04:56:25.949Z,6.31
2019-01-13T04:57:25.863Z,6.25
2019-01-13T04:58:25.829Z,6.21
2019-01-13T04:59:25.699Z,6.28
2019-01-13T05:00:25.612Z,6.30
2019-01-13T05:01:25.525Z,6.30
2019-01-13T05:02:25.438Z,6.31
2019-01-13T05:03:25.363Z,6.34
2019-01-13T05:04:25.263Z,6.34
2019-01-13T05:05:25.188Z,6.33
2019-01-13T05:06:25.102Z,6.36
2019-01-13T05:07:25.012Z,6.33
2019-01-13T05:08:24.926Z,6.36
2019-01-13T05:09:24.838Z,6.33
2019-01-13T05:10:24.750Z,6.34
2019-01-13T05:11:24.677Z,6.33
2019-01-13T05:12:24.588Z,6.25
2019-01-13T05:13:24.510Z,6.36
2019-01-13T05:14:24.416Z,6.37
2019-01-13T05:15:24.328Z,6.40
2019-01-13T05:16:24.253Z,6.30
2019-01-13T05:17:24.163Z,6.36
2019-01-13T05:18:24.078Z,6.34
2019-01-13T05:19:23.989Z,6.38
2019-01-13T05:20:23.905Z,6.36
2019-01-13T05:21:23.814Z,6.37
2019-01-13T05:22:23.729Z,6.37
2019-01-13T05:23:23.652Z,6.38
2019-01-13T05:24:23.564Z,6.34
2019-01-13T05:25:23.778Z,6.33
2019-01-13T05:26:23.393Z,6.38
2019-01-13T05:27:23.303Z,6.37
2019-01-13T05:28:23.218Z,6.36
2019-01-13T05:29:23.140Z,6.36
2019-01-13T05:30:23.053Z,6.38
2019-01-13T05:31:22.978Z,6.33
2019-01-13T05:32:22.878Z,6.37
2019-01-13T05:33:22.791Z,6.34
2019-01-13T05:34:22.715Z,6.33
2019-01-13T05:35:22.628Z,6.34
2019-01-13T05:36:22.540Z,6.34
2019-01-13T05:37:22.454Z,6.34
2019-01-13T05:38:22.367Z,6.34
2019-01-13T05:39:22.279Z,6.36
2019-01-13T05:40:22.193Z,6.34
2019-01-13T05:41:22.116Z,6.33
2019-01-13T05:42:22.029Z,6.33
2019-01-13T05:43:21.942Z,6.34
2019-01-13T05:44:21.857Z,6.33
2019-01-13T05:45:21.767Z,6.30
2019-01-13T05:46:21.693Z,6.34
2019-01-13T05:47:21.607Z,6.28
2019-01-13T05:48:21.517Z,6.30
2019-01-13T05:49:21.431Z,6.27
2019-01-13T05:50:21.342Z,6.33
2019-01-13T05:51:21.255Z,6.18
2019-01-13T05:52:21.180Z,6.25
2019-01-13T05:53:21.092Z,6.19
2019-01-13T05:54:21.006Z,6.18
2019-01-13T05:55:20.918Z,6.31
2019-01-13T05:56:20.831Z,6.30
2019-01-13T05:57:20.746Z,6.19
2019-01-13T05:58:20.668Z,6.19
2019-01-13T05:59:20.582Z,6.25
2019-01-13T06:00:20.499Z,6.25
2019-01-13T06:01:20.406Z,6.22
2019-01-13T06:02:20.332Z,6.21
2019-01-13T06:03:20.231Z,6.28
2019-01-13T06:04:20.157Z,6.21
2019-01-13T06:05:20.069Z,6.30
2019-01-13T06:06:19.982Z,6.27
2019-01-13T06:07:19.894Z,6.27
2019-01-13T06:08:19.807Z,6.22
2019-01-13T06:09:19.721Z,6.31
2019-01-13T06:10:19.643Z,6.28
2019-01-13T06:11:19.559Z,6.38
2019-01-13T06:12:19.469Z,6.30
2019-01-13T06:13:19.382Z,6.33
2019-01-13T06:14:19.298Z,6.34
2019-01-13T06:15:19.219Z,6.31
2019-01-13T06:16:19.133Z,6.34
2019-01-13T06:17:19.058Z,6.37
2019-01-13T06:18:18.959Z,6.31
2019-01-13T06:19:18.873Z,6.40
2019-01-13T06:20:18.784Z,6.37
2019-01-13T06:21:18.708Z,6.37
2019-01-13T06:22:18.620Z,6.28
2019-01-13T06:23:18.536Z,6.33
2019-01-13T06:24:18.446Z,6.30
2019-01-13T06:25:18.359Z,6.43
2019-01-13T06:26:18.271Z,6.25
2019-01-13T06:27:18.200Z,6.40
2019-01-13T06:28:18.109Z,6.25
2019-01-13T06:29:18.021Z,6.40
2019-01-13T06:30:17.934Z,6.31
2019-01-13T06:31:17.861Z,6.37
2019-01-13T06:32:17.759Z,6.37
2019-01-13T06:33:17.685Z,6.37
2019-01-13T06:34:17.611Z,6.44
2019-01-13T06:35:17.517Z,6.27
2019-01-13T06:36:17.422Z,6.34
2019-01-13T06:37:17.337Z,6.31
2019-01-13T06:38:17.252Z,6.36
2019-01-13T06:39:17.172Z,6.41
2019-01-13T06:40:17.085Z,6.30
2019-01-13T06:41:17.020Z,6.43
2019-01-13T06:42:16.910Z,6.41
2019-01-13T06:43:16.823Z,6.40
2019-01-13T06:44:16.748Z,6.40
2019-01-13T06:45:16.660Z,6.49
2019-01-13T06:46:16.572Z,6.46
2019-01-13T06:47:16.486Z,6.43
2019-01-13T06:48:16.398Z,6.44
2019-01-13T06:49:16.312Z,6.46
2019-01-13T06:50:16.237Z,6.46
2019-01-13T06:51:16.149Z,6.44
2019-01-13T06:52:16.062Z,6.48
2019-01-13T06:53:15.973Z,6.44
2019-01-13T06:54:15.887Z,6.43
2019-01-13T06:55:15.799Z,6.48
2019-01-13T06:56:15.724Z,6.48
2019-01-13T06:57:15.637Z,6.38
2019-01-13T06:58:15.549Z,6.54
2019-01-13T06:59:15.464Z,6.43
2019-01-13T07:00:15.390Z,6.56
2019-01-13T07:01:15.300Z,6.46
2019-01-13T07:02:15.217Z,6.55
2019-01-13T07:03:15.126Z,6.58
2019-01-13T07:04:15.039Z,6.56
2019-01-13T07:05:14.952Z,6.59
2019-01-13T07:06:14.875Z,6.56
2019-01-13T07:07:14.788Z,6.56
2019-01-13T07:08:14.700Z,6.54
2019-01-13T07:09:14.614Z,6.59
2019-01-13T07:10:14.576Z,6.54
2019-01-13T07:11:14.439Z,6.61
2019-01-13T07:12:14.365Z,6.52
2019-01-13T07:13:14.278Z,6.56
2019-01-13T07:14:14.192Z,6.55
2019-01-13T07:15:14.101Z,6.59
2019-01-13T07:16:14.021Z,6.58
2019-01-13T07:17:13.927Z,6.59
2019-01-13T07:18:13.852Z,6.56
2019-01-13T07:19:13.765Z,6.54
2019-01-13T07:20:13.694Z,6.61
2019-01-13T07:21:13.592Z,6.55
2019-01-13T07:22:13.503Z,6.61
2019-01-13T07:23:13.427Z,6.66
2019-01-13T07:24:13.340Z,6.70
2019-01-13T07:25:13.252Z,6.70
2019-01-13T07:26:13.165Z,6.67
2019-01-13T07:27:13.077Z,6.62
2019-01-13T07:28:13.002Z,6.61
2019-01-13T07:29:12.918Z,6.70
2019-01-13T07:30:12.828Z,6.73
2019-01-13T07:31:12.742Z,6.69
2019-01-13T07:32:12.653Z,6.71
2019-01-13T07:33:12.579Z,6.66
2019-01-13T07:34:12.492Z,6.70
2019-01-13T07:35:12.417Z,6.77
2019-01-13T07:36:12.316Z,6.73
2019-01-13T07:37:12.228Z,6.70
2019-01-13T07:38:12.145Z,6.73
2019-01-13T07:39:12.066Z,6.74
2019-01-13T07:40:11.978Z,6.74
2019-01-13T07:41:11.892Z,6.69
2019-01-13T07:42:11.805Z,6.85
2019-01-13T07:43:11.718Z,6.73
2019-01-13T07:44:11.631Z,6.80
2019-01-13T07:45:11.554Z,6.81
2019-01-13T07:46:11.470Z,6.76
2019-01-13T07:47:11.379Z,6.71
2019-01-13T07:48:11.293Z,6.79
2019-01-13T07:49:11.207Z,6.85
2019-01-13T07:50:11.129Z,6.81
2019-01-13T07:51:11.043Z,6.81
2019-01-13T07:52:10.955Z,6.85
2019-01-13T07:53:10.868Z,6.85
2019-01-13T07:54:10.780Z,6.89
2019-01-13T07:55:10.708Z,6.87
2019-01-13T07:56:10.618Z,6.89
2019-01-13T07:57:10.531Z,6.81
2019-01-13T07:58:10.443Z,6.85
2019-01-13T07:59:10.356Z,6.88
2019-01-13T08:00:10.280Z,6.76
2019-01-13T08:01:10.198Z,6.81
2019-01-13T08:02:10.106Z,6.87
2019-01-13T08:03:10.020Z,6.85
2019-01-13T08:04:09.931Z,6.87
2019-01-13T08:05:09.860Z,6.87
2019-01-13T08:06:09.770Z,6.88
2019-01-13T08:07:09.682Z,6.84
2019-01-13T08:08:09.594Z,6.89
2019-01-13T08:09:09.509Z,6.91
2019-01-13T08:10:09.432Z,7.02
2019-01-13T08:11:09.346Z,6.94
2019-01-13T08:12:09.257Z,6.88
2019-01-13T08:13:09.170Z,6.87
2019-01-13T08:14:09.082Z,6.91
2019-01-13T08:15:09.007Z,6.91
2019-01-13T08:16:08.922Z,6.99
2019-01-13T08:17:08.832Z,6.89
2019-01-13T08:18:08.746Z,6.94
2019-01-13T08:19:08.658Z,6.91
2019-01-13T08:20:08.583Z,6.99
2019-01-13T08:21:08.496Z,7.02
2019-01-13T08:22:08.409Z,6.97
2019-01-13T08:23:08.321Z,6.94
2019-01-13T08:24:08.233Z,7.02
2019-01-13T08:25:08.158Z,6.97
2019-01-13T08:26:08.071Z,7.05
2019-01-13T08:27:07.983Z,7.07
2019-01-13T08:28:07.897Z,6.99
2019-01-13T08:29:07.824Z,6.99
2019-01-13T08:30:07.734Z,6.99
2019-01-13T08:31:07.648Z,6.97
2019-01-13T08:32:07.559Z,7.03
2019-01-13T08:33:07.485Z,7.05
2019-01-13T08:34:07.385Z,7.03
2019-01-13T08:35:07.325Z,6.94
2019-01-13T08:36:07.224Z,6.98
2019-01-13T08:37:07.135Z,7.02
2019-01-13T08:38:07.049Z,7.02
2019-01-13T08:39:06.965Z,7.02
2019-01-13T08:40:06.885Z,6.97
2019-01-13T08:41:06.798Z,7.03
2019-01-13T08:42:06.723Z,7.10
2019-01-13T08:43:06.623Z,7.02
2019-01-13T08:44:06.537Z,7.03
2019-01-13T08:45:06.460Z,7.03
2019-01-13T08:46:06.374Z,7.07
2019-01-13T08:47:06.285Z,6.98
2019-01-13T08:48:06.201Z,6.97
2019-01-13T08:49:06.127Z,7.03
2019-01-13T08:50:06.036Z,6.97
2019-01-13T08:51:05.949Z,7.02
2019-01-13T08:52:05.863Z,6.98
2019-01-13T08:53:05.775Z,7.03
2019-01-13T08:54:05.706Z,7.02
2019-01-13T08:55:05.612Z,7.03
2019-01-13T08:56:05.525Z,7.02
2019-01-13T08:57:05.437Z,6.94
2019-01-13T08:58:05.378Z,7.07
2019-01-13T08:59:05.276Z,7.10
2019-01-13T09:00:05.187Z,7.10
2019-01-13T09:01:05.101Z,7.12
2019-01-13T09:02:05.013Z,6.97
2019-01-13T09:03:04.937Z,6.99
2019-01-13T09:04:04.850Z,7.05
2019-01-13T09:05:04.765Z,7.05
2019-01-13T09:06:04.678Z,7.05
2019-01-13T09:07:04.596Z,6.99
2019-01-13T09:08:04.513Z,6.99
2019-01-13T09:09:04.427Z,7.05
2019-01-13T09:10:04.340Z,7.13
2019-01-13T09:11:04.251Z,7.09
2019-01-13T09:12:04.167Z,7.07
2019-01-13T09:13:04.105Z,7.05
2019-01-13T09:14:04.002Z,7.05
2019-01-13T09:15:03.915Z,7.03
2019-01-13T09:16:03.827Z,6.99
2019-01-13T09:17:03.751Z,7.02
2019-01-13T09:18:03.663Z,6.99
2019-01-13T09:19:03.577Z,6.99
2019-01-13T09:20:03.495Z,7.03
2019-01-13T09:21:03.403Z,6.99
2019-01-13T09:22:03.326Z,6.98
2019-01-13T09:23:03.240Z,7.02
2019-01-13T09:24:03.153Z,6.94
2019-01-13T09:25:03.065Z,6.98
2019-01-13T09:26:02.982Z,7.03
2019-01-13T09:27:02.903Z,6.97
2019-01-13T09:28:03.562Z,6.94
2019-01-13T09:29:02.735Z,6.94
2019-01-13T09:30:02.654Z,6.98
2019-01-13T09:31:02.553Z,6.99
2019-01-13T09:32:02.485Z,6.95
2019-01-13T09:33:02.391Z,7.02
2019-01-13T09:34:02.304Z,7.05
2019-01-13T09:35:02.221Z,6.97
2019-01-13T09:36:02.129Z,6.98
2019-01-13T09:37:02.054Z,6.94
2019-01-13T09:38:01.967Z,6.99
2019-01-13T09:39:01.884Z,7.03
2019-01-13T09:40:01.792Z,7.03
2019-01-13T09:41:01.704Z,6.98
2019-01-13T09:42:01.635Z,6.99
2019-01-13T09:43:01.556Z,6.95
2019-01-13T09:44:01.455Z,6.92
2019-01-13T09:45:01.368Z,6.99
2019-01-13T09:46:01.284Z,6.97
2019-01-13T09:47:01.205Z,6.98
2019-01-13T09:48:01.118Z,6.98
2019-01-13T09:49:01.032Z,6.95
2019-01-13T09:50:00.955Z,6.99
2019-01-13T09:51:00.856Z,7.03
2019-01-13T09:52:00.770Z,7.03
2019-01-13T09:53:00.693Z,7.02
2019-01-13T09:54:00.606Z,6.95
2019-01-13T09:55:00.518Z,6.99
2019-01-13T09:56:00.431Z,6.95
2019-01-13T09:57:00.345Z,6.99
2019-01-13T09:58:00.268Z,7.03
2019-01-13T09:59:00.186Z,6.99
2019-01-13T10:00:00.262Z,7.03
2019-01-13T10:01:00.010Z,6.97
2019-01-13T10:01:59.920Z,7.07
2019-01-13T10:02:59.843Z,7.07
2019-01-13T10:03:59.757Z,7.03
2019-01-13T10:04:59.682Z,6.99
2019-01-13T10:05:59.582Z,7.02
2019-01-13T10:06:59.494Z,6.98
2019-01-13T10:07:59.419Z,6.99
2019-01-13T10:08:59.332Z,6.99
2019-01-13T10:09:59.244Z,6.99
2019-01-13T10:10:59.158Z,7.03
2019-01-13T10:11:59.070Z,6.98
2019-01-13T10:12:58.994Z,7.03
2019-01-13T10:13:58.909Z,6.97
2019-01-13T10:14:58.820Z,7.07
2019-01-13T10:15:58.734Z,7.02
2019-01-13T10:16:58.645Z,6.92
2019-01-13T10:17:58.573Z,7.03
2019-01-13T10:18:58.483Z,7.03
2019-01-13T10:19:58.395Z,6.98
2019-01-13T10:20:58.309Z,6.94
2019-01-13T10:21:58.234Z,7.03
2019-01-13T10:22:58.134Z,6.99
2019-01-13T10:23:58.068Z,6.95
2019-01-13T10:24:57.971Z,6.99
2019-01-13T10:25:57.888Z,7.03
2019-01-13T10:26:57.800Z,7.03
2019-01-13T10:27:57.710Z,6.98
2019-01-13T10:28:57.635Z,7.06
2019-01-13T10:29:57.546Z,7.07
2019-01-13T10:31:03.137Z,7.02
2019-01-13T10:31:57.372Z,7.07
2019-01-13T10:32:57.289Z,7.06
2019-01-13T10:33:57.210Z,7.02
2019-01-13T10:34:57.122Z,6.99
2019-01-13T10:35:57.035Z,6.98
2019-01-13T10:36:56.947Z,6.97
2019-01-13T10:37:56.861Z,6.98
2019-01-13T10:38:56.785Z,7.02
2019-01-13T10:39:56.714Z,6.97
2019-01-13T10:40:56.610Z,6.99
2019-01-13T10:41:56.523Z,7.09
2019-01-13T10:42:56.436Z,6.99
2019-01-13T10:43:56.362Z,7.02
2019-01-13T10:44:56.273Z,6.99
2019-01-13T10:45:56.186Z,7.05
2019-01-13T10:46:56.098Z,7.09
2019-01-13T10:47:56.023Z,7.12
2019-01-13T10:48:55.937Z,7.13
2019-01-13T10:49:55.862Z,7.07
2019-01-13T10:50:55.762Z,7.03
2019-01-13T10:51:55.673Z,7.09
2019-01-13T10:52:55.587Z,7.12
2019-01-13T10:53:55.513Z,7.07
2019-01-13T10:54:55.424Z,7.13
2019-01-13T10:55:55.587Z,7.15
2019-01-13T10:56:55.250Z,7.15
2019-01-13T10:57:55.162Z,7.13
2019-01-13T10:58:55.076Z,7.13
2019-01-13T10:59:55.000Z,7.12
2019-01-13T11:00:54.914Z,7.15
2019-01-13T11:01:54.825Z,7.12
2019-01-13T11:03:01.721Z,7.10
2019-01-13T11:03:54.663Z,7.13
2019-01-13T11:04:54.575Z,7.15
2019-01-13T11:05:54.488Z,7.13
2019-01-13T11:06:54.414Z,6.97
2019-01-13T11:07:54.314Z,7.07
2019-01-13T11:08:54.227Z,7.12
2019-01-13T11:09:54.151Z,7.02
2019-01-13T11:10:54.064Z,6.99
2019-01-13T11:11:53.980Z,7.05
2019-01-13T11:12:53.890Z,7.13
2019-01-13T11:13:53.802Z,6.97
2019-01-13T11:14:53.727Z,7.09
2019-01-13T11:15:53.639Z,6.99
2019-01-13T11:16:53.551Z,7.02
2019-01-13T11:17:53.465Z,7.02
2019-01-13T11:18:53.378Z,7.12
2019-01-13T11:19:53.302Z,7.07
2019-01-13T11:20:53.215Z,7.10
2019-01-13T11:21:53.140Z,7.03
2019-01-13T11:22:53.042Z,7.15
2019-01-13T11:23:52.952Z,7.03
2019-01-13T11:24:52.878Z,7.10
2019-01-13T11:25:52.791Z,7.13
2019-01-13T11:26:52.703Z,7.23
2019-01-13T11:27:52.616Z,7.03
2019-01-13T11:28:52.528Z,7.12
2019-01-13T11:29:52.453Z,7.12
2019-01-13T11:30:52.366Z,7.13
2019-01-13T11:31:52.292Z,7.10
2019-01-13T11:32:52.193Z,7.15
2019-01-13T11:33:52.104Z,7.12
2019-01-13T11:34:52.021Z,6.98
2019-01-13T11:35:51.942Z,6.95
2019-01-13T11:36:51.854Z,6.99
2019-01-13T11:37:51.768Z,6.99
2019-01-13T11:38:51.679Z,7.09
2019-01-13T11:39:51.592Z,7.05
2019-01-13T11:40:51.521Z,7.10
2019-01-13T11:41:51.429Z,6.99
2019-01-13T11:42:51.343Z,7.15
2019-01-13T11:43:51.254Z,7.12
2019-01-13T11:44:51.170Z,6.99
2019-01-13T11:45:51.093Z,7.10
2019-01-13T11:46:51.005Z,6.99
2019-01-13T11:47:50.918Z,6.95
2019-01-13T11:48:50.883Z,7.12
2019-01-13T11:49:50.743Z,7.07
2019-01-13T11:50:50.669Z,7.12
2019-01-13T11:51:50.580Z,7.07
2019-01-13T11:52:50.498Z,7.02
2019-01-13T11:53:50.405Z,7.03
2019-01-13T11:54:50.320Z,7.02
2019-01-13T11:55:50.244Z,6.99
2019-01-13T11:56:50.157Z,6.95
2019-01-13T11:57:50.069Z,7.05
2019-01-13T11:58:49.981Z,6.99
2019-01-13T11:59:49.895Z,7.02
2019-01-13T12:00:49.870Z,7.10
2019-01-13T12:01:49.732Z,6.99
2019-01-13T12:02:49.644Z,7.02
2019-01-13T12:03:49.556Z,6.95
2019-01-13T12:04:49.470Z,7.10
2019-01-13T12:05:49.385Z,7.02
2019-01-13T12:06:49.306Z,6.98
2019-01-13T12:07:49.220Z,6.98
2019-01-13T12:08:49.132Z,7.03
2019-01-13T12:09:49.046Z,7.02
2019-01-13T12:10:48.970Z,6.99
2019-01-13T12:11:48.883Z,6.99
2019-01-13T12:12:48.796Z,7.06
2019-01-13T12:13:48.708Z,7.05
2019-01-13T12:14:48.621Z,6.98
2019-01-13T12:15:48.533Z,7.02
2019-01-13T12:16:48.459Z,6.99
2019-01-13T12:17:48.372Z,7.02
2019-01-13T12:18:48.283Z,6.97
2019-01-13T12:19:48.196Z,7.05
2019-01-13T12:20:48.109Z,7.03
2019-01-13T12:21:48.033Z,7.16
2019-01-13T12:22:47.947Z,7.03
2019-01-13T12:23:47.859Z,7.02
2019-01-13T12:24:47.772Z,7.06
2019-01-13T12:25:52.629Z,7.15
2019-01-13T12:26:47.597Z,7.12
2019-01-13T12:27:47.522Z,6.99
2019-01-13T12:28:47.434Z,7.06
2019-01-13T12:29:47.352Z,7.09
2019-01-13T12:30:47.260Z,6.98
2019-01-13T12:31:47.174Z,7.09
2019-01-13T12:32:47.097Z,6.99
2019-01-13T12:33:47.009Z,7.05
2019-01-13T12:34:46.923Z,7.03
2019-01-13T12:35:46.835Z,7.10
2019-01-13T12:36:46.751Z,7.20
2019-01-13T12:37:46.662Z,7.13
2019-01-13T12:38:46.588Z,7.17
2019-01-13T12:39:46.499Z,7.15
2019-01-13T12:40:46.410Z,7.10
2019-01-13T12:41:46.325Z,7.15
2019-01-13T12:42:46.248Z,7.21
2019-01-13T12:43:46.160Z,7.16
2019-01-13T12:44:46.076Z,7.13
2019-01-13T12:45:45.986Z,7.07
2019-01-13T12:46:45.900Z,7.15
2019-01-13T12:47:45.811Z,7.13
2019-01-13T12:48:45.736Z,7.13
2019-01-13T12:49:45.649Z,7.12
2019-01-13T12:50:45.562Z,7.13
2019-01-13T12:51:45.475Z,7.20
2019-01-13T12:52:45.387Z,7.24
2019-01-13T12:53:45.302Z,7.17
2019-01-13T12:54:45.224Z,7.21
2019-01-13T12:55:45.137Z,7.25
2019-01-13T12:56:45.051Z,7.21
2019-01-13T12:57:45.069Z,7.27
2019-01-13T12:58:44.886Z,7.24
2019-01-13T12:59:46.392Z,7.24
2019-01-13T13:00:44.713Z,7.34
2019-01-13T13:01:44.625Z,7.24
2019-01-13T13:02:44.537Z,7.30
2019-01-13T13:03:44.450Z,7.27
2019-01-13T13:04:44.376Z,7.32
2019-01-13T13:05:44.288Z,7.34
2019-01-13T13:06:44.201Z,7.31
2019-01-13T13:07:44.113Z,7.25
2019-01-13T13:08:44.031Z,7.27
2019-01-13T13:09:43.941Z,7.28
2019-01-13T13:10:43.865Z,7.35
2019-01-13T13:11:43.776Z,7.37
2019-01-13T13:12:43.688Z,7.43
2019-01-13T13:13:43.602Z,7.46
2019-01-13T13:14:43.514Z,7.50
2019-01-13T13:15:43.438Z,7.35
2019-01-13T13:16:43.352Z,7.34
2019-01-13T13:17:43.265Z,7.39